sensor_id;sensor_type;location;lat;lon;timestamp;pressure;altitude;pressure_sealevel;temperature;humidity
4617;BME280;2321;42.704;23.384;2024-01-16T00:01:36;93949.13;;;2.63;100.00
4617;BME280;2321;42.704;23.384;2024-01-16T00:04:03;93955.00;;;2.65;100.00
4617;BME280;2321;42.704;23.384;2024-01-16T00:06:31;93968.59;;;2.69;100.00
4617;BME280;2321;42.704;23.384;2024-01-16T00:08:58;93983.34;;;2.70;100.00
4617;BME280;2321;42.704;23.384;2024-01-16T00:11:25;93973.88;;;2.69;100.00
4617;BME280;2321;42.704;23.384;2024-01-16T00:13:52;93968.59;;;2.69;100.00
4617;BME280;2321;42.704;23.384;2024-01-16T00:16:19;93981.75;;;2.69;100.00
4617;BME280;2321;42.704;23.384;2024-01-16T00:18:45;93987.53;;;2.64;100.00
4617;BME280;2321;42.704;23.384;2024-01-16T00:21:11;93985.56;;;2.66;100.00
4617;BME280;2321;42.704;23.384;2024-01-16T00:23:39;93979.94;;;2.69;100.00
4617;BME280;2321;42.704;23.384;2024-01-16T00:26:06;93982.09;;;2.66;100.00
4617;BME280;2321;42.704;23.384;2024-01-16T00:28:33;93982.63;;;2.61;100.00
4617;BME280;2321;42.704;23.384;2024-01-16T00:30:59;93988.69;;;2.61;100.00
4617;BME280;2321;42.704;23.384;2024-01-16T00:33:26;93986.25;;;2.60;100.00
4617;BME280;2321;42.704;23.384;2024-01-16T00:35:53;93992.63;;;2.66;100.00
4617;BME280;2321;42.704;23.384;2024-01-16T00:38:20;93999.78;;;2.72;100.00
4617;BME280;2321;42.704;23.384;2024-01-16T00:40:48;93994.34;;;2.74;100.00
4617;BME280;2321;42.704;23.384;2024-01-16T00:43:15;93997.78;;;2.74;100.00
4617;BME280;2321;42.704;23.384;2024-01-16T00:45:42;93987.28;;;2.74;100.00
4617;BME280;2321;42.704;23.384;2024-01-16T00:48:09;93981.19;;;2.74;100.00
4617;BME280;2321;42.704;23.384;2024-01-16T00:50:38;93986.28;;;2.75;100.00
4617;BME280;2321;42.704;23.384;2024-01-16T00:53:05;93986.56;;;2.80;100.00
4617;BME280;2321;42.704;23.384;2024-01-16T00:55:32;93994.28;;;2.82;100.00
4617;BME280;2321;42.704;23.384;2024-01-16T00:58:00;94007.72;;;2.87;100.00
4617;BME280;2321;42.704;23.384;2024-01-16T01:00:27;94002.72;;;2.92;100.00
4617;BME280;2321;42.704;23.384;2024-01-16T01:02:56;94002.56;;;2.94;100.00
4617;BME280;2321;42.704;23.384;2024-01-16T01:05:23;94002.72;;;2.92;100.00
4617;BME280;2321;42.704;23.384;2024-01-16T01:07:53;94019.31;;;2.93;100.00
4617;BME280;2321;42.704;23.384;2024-01-16T01:10:20;94021.94;;;2.93;100.00
4617;BME280;2321;42.704;23.384;2024-01-16T01:12:47;94022.06;;;3.00;100.00
4617;BME280;2321;42.704;23.384;2024-01-16T01:15:15;94027.94;;;3.02;100.00
4617;BME280;2321;42.704;23.384;2024-01-16T01:17:42;94020.25;;;3.00;100.00
4617;BME280;2321;42.704;23.384;2024-01-16T01:20:08;94017.25;;;3.03;100.00
4617;BME280;2321;42.704;23.384;2024-01-16T01:22:37;94016.09;;;3.06;100.00
4617;BME280;2321;42.704;23.384;2024-01-16T01:25:04;94017.34;;;3.10;100.00
4617;BME280;2321;42.704;23.384;2024-01-16T01:27:31;94002.38;;;3.11;100.00
4617;BME280;2321;42.704;23.384;2024-01-16T01:29:58;94001.84;;;3.00;100.00
4617;BME280;2321;42.704;23.384;2024-01-16T01:32:26;94001.53;;;2.95;100.00
4617;BME280;2321;42.704;23.384;2024-01-16T01:34:53;93995.91;;;2.98;100.00
4617;BME280;2321;42.704;23.384;2024-01-16T01:37:19;94002.47;;;3.02;100.00
4617;BME280;2321;42.704;23.384;2024-01-16T01:39:46;94012.63;;;3.05;100.00
4617;BME280;2321;42.704;23.384;2024-01-16T01:42:14;94009.00;;;3.07;100.00
4617;BME280;2321;42.704;23.384;2024-01-16T01:44:41;94004.19;;;3.10;100.00
4617;BME280;2321;42.704;23.384;2024-01-16T01:47:08;93988.41;;;3.10;100.00
4617;BME280;2321;42.704;23.384;2024-01-16T01:49:36;93990.59;;;3.07;100.00
4617;BME280;2321;42.704;23.384;2024-01-16T01:52:04;94012.16;;;3.02;100.00
4617;BME280;2321;42.704;23.384;2024-01-16T01:54:31;94016.44;;;3.03;100.00
4617;BME280;2321;42.704;23.384;2024-01-16T01:57:00;93998.38;;;3.00;100.00
4617;BME280;2321;42.704;23.384;2024-01-16T01:59:27;94025.88;;;2.97;100.00
4617;BME280;2321;42.704;23.384;2024-01-16T02:01:54;94008.44;;;2.96;100.00
4617;BME280;2321;42.704;23.384;2024-01-16T02:04:21;93996.13;;;2.97;100.00
4617;BME280;2321;42.704;23.384;2024-01-16T02:06:50;94012.53;;;2.99;100.00
4617;BME280;2321;42.704;23.384;2024-01-16T02:09:17;94020.69;;;3.04;100.00
4617;BME280;2321;42.704;23.384;2024-01-16T02:11:43;94009.81;;;3.07;100.00
4617;BME280;2321;42.704;23.384;2024-01-16T02:14:10;94003.75;;;3.07;100.00
4617;BME280;2321;42.704;23.384;2024-01-16T02:16:38;94025.41;;;3.09;100.00
4617;BME280;2321;42.704;23.384;2024-01-16T02:19:05;94029.31;;;3.13;100.00
4617;BME280;2321;42.704;23.384;2024-01-16T02:21:36;94025.16;;;3.19;100.00
4617;BME280;2321;42.704;23.384;2024-01-16T02:24:04;94015.00;;;3.15;100.00
4617;BME280;2321;42.704;23.384;2024-01-16T02:26:31;94024.88;;;3.13;100.00
4617;BME280;2321;42.704;23.384;2024-01-16T02:29:00;94036.84;;;3.16;100.00
4617;BME280;2321;42.704;23.384;2024-01-16T02:31:27;94036.47;;;3.19;100.00
4617;BME280;2321;42.704;23.384;2024-01-16T02:33:53;94047.66;;;3.21;100.00
4617;BME280;2321;42.704;23.384;2024-01-16T02:36:20;94056.00;;;3.25;100.00
4617;BME280;2321;42.704;23.384;2024-01-16T02:38:47;94053.75;;;3.22;100.00
4617;BME280;2321;42.704;23.384;2024-01-16T02:41:15;94056.81;;;3.25;100.00
4617;BME280;2321;42.704;23.384;2024-01-16T02:43:42;94055.81;;;3.26;100.00
4617;BME280;2321;42.704;23.384;2024-01-16T02:46:09;94051.81;;;3.15;100.00
4617;BME280;2321;42.704;23.384;2024-01-16T02:48:36;94068.16;;;3.26;100.00
4617;BME280;2321;42.704;23.384;2024-01-16T02:51:03;94085.47;;;3.20;100.00
4617;BME280;2321;42.704;23.384;2024-01-16T02:53:30;94094.66;;;3.24;100.00
4617;BME280;2321;42.704;23.384;2024-01-16T02:55:57;94099.72;;;3.26;100.00
4617;BME280;2321;42.704;23.384;2024-01-16T02:58:26;94110.00;;;3.36;100.00
4617;BME280;2321;42.704;23.384;2024-01-16T03:00:52;94114.28;;;3.37;100.00
4617;BME280;2321;42.704;23.384;2024-01-16T03:03:19;94110.44;;;3.24;100.00
4617;BME280;2321;42.704;23.384;2024-01-16T03:05:46;94137.25;;;3.43;100.00
4617;BME280;2321;42.704;23.384;2024-01-16T03:08:13;94131.31;;;3.41;100.00
4617;BME280;2321;42.704;23.384;2024-01-16T03:10:40;94134.59;;;3.43;100.00
4617;BME280;2321;42.704;23.384;2024-01-16T03:13:06;94145.06;;;3.52;100.00
4617;BME280;2321;42.704;23.384;2024-01-16T03:15:35;94158.84;;;3.54;100.00
4617;BME280;2321;42.704;23.384;2024-01-16T03:18:01;94159.66;;;3.54;100.00
4617;BME280;2321;42.704;23.384;2024-01-16T03:20:28;94172.00;;;3.54;100.00
4617;BME280;2321;42.704;23.384;2024-01-16T03:22:55;94175.22;;;3.64;100.00
4617;BME280;2321;42.704;23.384;2024-01-16T03:25:22;94179.03;;;3.77;100.00
4617;BME280;2321;42.704;23.384;2024-01-16T03:27:48;94173.31;;;4.03;100.00
4617;BME280;2321;42.704;23.384;2024-01-16T03:30:15;94173.31;;;4.19;100.00
4617;BME280;2321;42.704;23.384;2024-01-16T03:32:43;94174.88;;;4.28;100.00
4617;BME280;2321;42.704;23.384;2024-01-16T03:35:10;94185.03;;;4.31;100.00
4617;BME280;2321;42.704;23.384;2024-01-16T03:37:37;94196.81;;;4.35;100.00
4617;BME280;2321;42.704;23.384;2024-01-16T03:40:04;94207.38;;;4.35;100.00
4617;BME280;2321;42.704;23.384;2024-01-16T03:42:32;94214.28;;;4.36;100.00
4617;BME280;2321;42.704;23.384;2024-01-16T03:44:59;94230.47;;;4.33;100.00
4617;BME280;2321;42.704;23.384;2024-01-16T03:47:26;94232.84;;;4.28;100.00
4617;BME280;2321;42.704;23.384;2024-01-16T03:49:54;94241.25;;;4.23;100.00
4617;BME280;2321;42.704;23.384;2024-01-16T03:52:21;94244.63;;;4.17;100.00
4617;BME280;2321;42.704;23.384;2024-01-16T03:54:48;94243.72;;;4.10;100.00
4617;BME280;2321;42.704;23.384;2024-01-16T03:57:14;94241.63;;;4.05;100.00
4617;BME280;2321;42.704;23.384;2024-01-16T03:59:42;94256.44;;;4.06;100.00
4617;BME280;2321;42.704;23.384;2024-01-16T04:02:08;94257.16;;;4.00;100.00
4617;BME280;2321;42.704;23.384;2024-01-16T04:04:35;94271.03;;;3.94;100.00
4617;BME280;2321;42.704;23.384;2024-01-16T04:07:03;94280.94;;;3.91;100.00
4617;BME280;2321;42.704;23.384;2024-01-16T04:09:30;94283.09;;;3.88;100.00
4617;BME280;2321;42.704;23.384;2024-01-16T04:11:57;94296.28;;;3.88;100.00
4617;BME280;2321;42.704;23.384;2024-01-16T04:14:24;94302.72;;;3.85;100.00
4617;BME280;2321;42.704;23.384;2024-01-16T04:16:51;94298.16;;;3.79;100.00
4617;BME280;2321;42.704;23.384;2024-01-16T04:19:18;94313.66;;;3.74;100.00
4617;BME280;2321;42.704;23.384;2024-01-16T04:21:44;94309.59;;;3.71;100.00
4617;BME280;2321;42.704;23.384;2024-01-16T04:24:12;94327.34;;;3.69;100.00
4617;BME280;2321;42.704;23.384;2024-01-16T04:26:39;94329.69;;;3.64;100.00
4617;BME280;2321;42.704;23.384;2024-01-16T04:29:06;94335.13;;;3.62;100.00
4617;BME280;2321;42.704;23.384;2024-01-16T04:31:38;94326.13;;;3.56;100.00
4617;BME280;2321;42.704;23.384;2024-01-16T04:34:05;94333.53;;;3.53;100.00
4617;BME280;2321;42.704;23.384;2024-01-16T04:36:32;94326.81;;;3.50;100.00
4617;BME280;2321;42.704;23.384;2024-01-16T04:38:58;94333.25;;;3.47;100.00
4617;BME280;2321;42.704;23.384;2024-01-16T04:41:27;94346.75;;;3.44;100.00
4617;BME280;2321;42.704;23.384;2024-01-16T04:43:53;94342.38;;;3.36;100.00
4617;BME280;2321;42.704;23.384;2024-01-16T04:46:20;94352.06;;;3.36;100.00
4617;BME280;2321;42.704;23.384;2024-01-16T04:48:47;94364.25;;;3.37;100.00
4617;BME280;2321;42.704;23.384;2024-01-16T04:51:14;94377.06;;;3.40;100.00
4617;BME280;2321;42.704;23.384;2024-01-16T04:53:41;94385.94;;;3.39;100.00
4617;BME280;2321;42.704;23.384;2024-01-16T04:56:08;94387.25;;;3.35;100.00
4617;BME280;2321;42.704;23.384;2024-01-16T04:58:36;94397.97;;;3.33;100.00
4617;BME280;2321;42.704;23.384;2024-01-16T05:01:03;94408.19;;;3.28;100.00
4617;BME280;2321;42.704;23.384;2024-01-16T05:03:29;94418.56;;;3.21;100.00
4617;BME280;2321;42.704;23.384;2024-01-16T05:05:56;94428.75;;;3.16;100.00
4617;BME280;2321;42.704;23.384;2024-01-16T05:08:23;94427.81;;;3.09;100.00
4617;BME280;2321;42.704;23.384;2024-01-16T05:10:50;94444.44;;;3.09;100.00
4617;BME280;2321;42.704;23.384;2024-01-16T05:13:16;94447.56;;;3.04;100.00
4617;BME280;2321;42.704;23.384;2024-01-16T05:15:44;94448.91;;;3.00;100.00
4617;BME280;2321;42.704;23.384;2024-01-16T05:18:11;94436.75;;;2.82;100.00
4617;BME280;2321;42.704;23.384;2024-01-16T05:20:38;94455.16;;;2.91;100.00
4617;BME280;2321;42.704;23.384;2024-01-16T05:23:05;94487.50;;;2.91;100.00
4617;BME280;2321;42.704;23.384;2024-01-16T05:25:32;94492.31;;;2.88;100.00
4617;BME280;2321;42.704;23.384;2024-01-16T05:27:58;94497.91;;;2.85;100.00
4617;BME280;2321;42.704;23.384;2024-01-16T05:30:25;94499.38;;;2.79;100.00
4617;BME280;2321;42.704;23.384;2024-01-16T05:32:54;94506.59;;;2.77;100.00
4617;BME280;2321;42.704;23.384;2024-01-16T05:35:21;94511.22;;;2.75;100.00
4617;BME280;2321;42.704;23.384;2024-01-16T05:37:47;94526.16;;;2.74;100.00
4617;BME280;2321;42.704;23.384;2024-01-16T05:40:14;94515.97;;;2.71;100.00
4617;BME280;2321;42.704;23.384;2024-01-16T05:42:41;94537.31;;;2.68;100.00
4617;BME280;2321;42.704;23.384;2024-01-16T05:45:08;94550.31;;;2.69;100.00
4617;BME280;2321;42.704;23.384;2024-01-16T05:47:35;94554.09;;;2.67;100.00
4617;BME280;2321;42.704;23.384;2024-01-16T05:50:03;94573.63;;;2.64;100.00
4617;BME280;2321;42.704;23.384;2024-01-16T05:52:30;94581.50;;;2.64;100.00
4617;BME280;2321;42.704;23.384;2024-01-16T05:54:57;94589.91;;;2.68;100.00
4617;BME280;2321;42.704;23.384;2024-01-16T05:57:25;94597.28;;;2.64;100.00
4617;BME280;2321;42.704;23.384;2024-01-16T05:59:51;94605.47;;;2.61;100.00
4617;BME280;2321;42.704;23.384;2024-01-16T06:02:18;94615.03;;;2.62;100.00
4617;BME280;2321;42.704;23.384;2024-01-16T06:04:45;94615.03;;;2.62;100.00
4617;BME280;2321;42.704;23.384;2024-01-16T06:07:14;94621.44;;;2.59;100.00
4617;BME280;2321;42.704;23.384;2024-01-16T06:09:40;94620.59;;;2.59;100.00
4617;BME280;2321;42.704;23.384;2024-01-16T06:12:07;94633.91;;;2.57;100.00
4617;BME280;2321;42.704;23.384;2024-01-16T06:14:34;94631.44;;;2.56;100.00
4617;BME280;2321;42.704;23.384;2024-01-16T06:17:01;94646.75;;;2.60;100.00
4617;BME280;2321;42.704;23.384;2024-01-16T06:19:35;94651.50;;;2.57;100.00
4617;BME280;2321;42.704;23.384;2024-01-16T06:22:02;94660.66;;;2.53;100.00
4617;BME280;2321;42.704;23.384;2024-01-16T06:24:30;94663.81;;;2.56;100.00
4617;BME280;2321;42.704;23.384;2024-01-16T06:27:02;94665.78;;;2.54;100.00
4617;BME280;2321;42.704;23.384;2024-01-16T06:29:29;94676.13;;;2.56;100.00
4617;BME280;2321;42.704;23.384;2024-01-16T06:31:55;94681.22;;;2.57;100.00
4617;BME280;2321;42.704;23.384;2024-01-16T06:34:22;94685.97;;;2.54;100.00
4617;BME280;2321;42.704;23.384;2024-01-16T06:36:49;94692.41;;;2.59;100.00
4617;BME280;2321;42.704;23.384;2024-01-16T06:39:16;94694.19;;;2.59;100.00
4617;BME280;2321;42.704;23.384;2024-01-16T06:41:44;94697.66;;;2.59;100.00
4617;BME280;2321;42.704;23.384;2024-01-16T06:44:10;94695.34;;;2.56;100.00
4617;BME280;2321;42.704;23.384;2024-01-16T06:46:37;94713.25;;;2.61;100.00
4617;BME280;2321;42.704;23.384;2024-01-16T06:49:04;94723.94;;;2.59;100.00
4617;BME280;2321;42.704;23.384;2024-01-16T06:51:31;94727.06;;;2.63;100.00
4617;BME280;2321;42.704;23.384;2024-01-16T06:53:57;94740.03;;;2.65;100.00
4617;BME280;2321;42.704;23.384;2024-01-16T06:56:24;94747.63;;;2.68;100.00
4617;BME280;2321;42.704;23.384;2024-01-16T06:58:52;94743.19;;;2.68;100.00
4617;BME280;2321;42.704;23.384;2024-01-16T07:01:19;94755.34;;;2.69;100.00
4617;BME280;2321;42.704;23.384;2024-01-16T07:03:46;94749.91;;;2.63;100.00
4617;BME280;2321;42.704;23.384;2024-01-16T07:06:13;94752.19;;;2.57;100.00
4617;BME280;2321;42.704;23.384;2024-01-16T07:08:39;94751.50;;;2.55;100.00
4617;BME280;2321;42.704;23.384;2024-01-16T07:11:06;94765.47;;;2.56;100.00
4617;BME280;2321;42.704;23.384;2024-01-16T07:13:38;94772.19;;;2.50;100.00
4617;BME280;2321;42.704;23.384;2024-01-16T07:16:06;94782.22;;;2.55;100.00
4617;BME280;2321;42.704;23.384;2024-01-16T07:18:33;94795.53;;;2.53;100.00
4617;BME280;2321;42.704;23.384;2024-01-16T07:20:59;94801.25;;;2.48;100.00
4617;BME280;2321;42.704;23.384;2024-01-16T07:23:28;94810.56;;;2.43;100.00
4617;BME280;2321;42.704;23.384;2024-01-16T07:25:55;94817.78;;;2.41;100.00
4617;BME280;2321;42.704;23.384;2024-01-16T07:28:21;94823.06;;;2.41;100.00
4617;BME280;2321;42.704;23.384;2024-01-16T07:30:48;94834.69;;;2.38;100.00
4617;BME280;2321;42.704;23.384;2024-01-16T07:33:16;94841.44;;;2.41;100.00
4617;BME280;2321;42.704;23.384;2024-01-16T07:35:43;94838.81;;;2.41;100.00
4617;BME280;2321;42.704;23.384;2024-01-16T07:38:13;94844.91;;;2.41;100.00
4617;BME280;2321;42.704;23.384;2024-01-16T07:40:39;94860.97;;;2.38;100.00
4617;BME280;2321;42.704;23.384;2024-01-16T07:43:06;94860.44;;;2.34;100.00
4617;BME280;2321;42.704;23.384;2024-01-16T07:45:33;94865.88;;;2.33;100.00
4617;BME280;2321;42.704;23.384;2024-01-16T07:48:00;94869.78;;;2.28;100.00
4617;BME280;2321;42.704;23.384;2024-01-16T07:50:28;94882.09;;;2.28;100.00
4617;BME280;2321;42.704;23.384;2024-01-16T07:52:55;94882.09;;;2.28;100.00
4617;BME280;2321;42.704;23.384;2024-01-16T07:55:22;94888.78;;;2.22;100.00
4617;BME280;2321;42.704;23.384;2024-01-16T07:57:48;94880.22;;;2.20;100.00
4617;BME280;2321;42.704;23.384;2024-01-16T08:00:15;94890.44;;;2.23;100.00
4617;BME280;2321;42.704;23.384;2024-01-16T08:02:43;94908.66;;;2.25;100.00
4617;BME280;2321;42.704;23.384;2024-01-16T08:05:10;94912.78;;;2.27;100.00
4617;BME280;2321;42.704;23.384;2024-01-16T08:07:38;94909.50;;;2.25;100.00
4617;BME280;2321;42.704;23.384;2024-01-16T08:10:05;94917.53;;;2.24;100.00
4617;BME280;2321;42.704;23.384;2024-01-16T08:12:34;94922.78;;;2.24;100.00
4617;BME280;2321;42.704;23.384;2024-01-16T08:15:02;94931.34;;;2.26;100.00
4617;BME280;2321;42.704;23.384;2024-01-16T08:17:29;94938.25;;;2.27;100.00
4617;BME280;2321;42.704;23.384;2024-01-16T08:19:56;94931.34;;;2.26;100.00
4617;BME280;2321;42.704;23.384;2024-01-16T08:22:23;94938.25;;;2.27;100.00
4617;BME280;2321;42.704;23.384;2024-01-16T08:24:51;94948.13;;;2.33;100.00
4617;BME280;2321;42.704;23.384;2024-01-16T08:27:18;94954.22;;;2.34;100.00
4617;BME280;2321;42.704;23.384;2024-01-16T08:29:45;94955.69;;;2.36;100.00
4617;BME280;2321;42.704;23.384;2024-01-16T08:32:15;94962.31;;;2.41;100.00
4617;BME280;2321;42.704;23.384;2024-01-16T08:34:41;94961.66;;;2.38;100.00
4617;BME280;2321;42.704;23.384;2024-01-16T08:37:08;94963.28;;;2.39;100.00
4617;BME280;2321;42.704;23.384;2024-01-16T08:39:35;94985.59;;;2.35;100.00
4617;BME280;2321;42.704;23.384;2024-01-16T08:42:03;94976.06;;;2.34;100.00
4617;BME280;2321;42.704;23.384;2024-01-16T08:44:30;94978.56;;;2.36;100.00
4617;BME280;2321;42.704;23.384;2024-01-16T08:46:57;94981.91;;;2.28;100.00
4617;BME280;2321;42.704;23.384;2024-01-16T08:49:24;94998.22;;;2.32;100.00
4617;BME280;2321;42.704;23.384;2024-01-16T08:51:51;94998.88;;;2.34;100.00
4617;BME280;2321;42.704;23.384;2024-01-16T08:54:18;95007.88;;;2.31;100.00
4617;BME280;2321;42.704;23.384;2024-01-16T08:56:48;95010.69;;;2.30;100.00
4617;BME280;2321;42.704;23.384;2024-01-16T08:59:16;95007.66;;;2.24;100.00
4617;BME280;2321;42.704;23.384;2024-01-16T09:01:43;95021.31;;;2.28;100.00
4617;BME280;2321;42.704;23.384;2024-01-16T09:04:09;95008.34;;;2.26;100.00
4617;BME280;2321;42.704;23.384;2024-01-16T09:06:37;95011.81;;;2.27;100.00
4617;BME280;2321;42.704;23.384;2024-01-16T09:09:04;95012.00;;;2.34;100.00
4617;BME280;2321;42.704;23.384;2024-01-16T09:11:31;95009.25;;;2.35;100.00
4617;BME280;2321;42.704;23.384;2024-01-16T09:13:59;95024.03;;;2.36;100.00
4617;BME280;2321;42.704;23.384;2024-01-16T09:16:27;95016.97;;;2.37;100.00
4617;BME280;2321;42.704;23.384;2024-01-16T09:18:53;95029.97;;;2.38;100.00
4617;BME280;2321;42.704;23.384;2024-01-16T09:21:20;95028.19;;;2.39;100.00
4617;BME280;2321;42.704;23.384;2024-01-16T09:23:47;95020.28;;;2.39;100.00
4617;BME280;2321;42.704;23.384;2024-01-16T09:26:14;95025.38;;;2.41;100.00
4617;BME280;2321;42.704;23.384;2024-01-16T09:28:41;95035.97;;;2.49;100.00
4617;BME280;2321;42.704;23.384;2024-01-16T09:31:07;95042.56;;;2.53;100.00
4617;BME280;2321;42.704;23.384;2024-01-16T09:33:35;95036.50;;;2.53;100.00
4617;BME280;2321;42.704;23.384;2024-01-16T09:36:02;95050.28;;;2.55;100.00
4617;BME280;2321;42.704;23.384;2024-01-16T09:38:29;95040.00;;;2.61;100.00
4617;BME280;2321;42.704;23.384;2024-01-16T09:40:56;95037.91;;;2.65;100.00
4617;BME280;2321;42.704;23.384;2024-01-16T09:43:25;95030.25;;;2.72;100.00
4617;BME280;2321;42.704;23.384;2024-01-16T09:45:53;95034.50;;;2.73;100.00
4617;BME280;2321;42.704;23.384;2024-01-16T09:48:21;95043.41;;;2.72;100.00
4617;BME280;2321;42.704;23.384;2024-01-16T09:50:49;95043.41;;;2.72;100.00
4617;BME280;2321;42.704;23.384;2024-01-16T09:53:15;95046.31;;;2.69;100.00
4617;BME280;2321;42.704;23.384;2024-01-16T09:55:42;95052.78;;;2.75;100.00
4617;BME280;2321;42.704;23.384;2024-01-16T09:58:09;95050.75;;;2.68;100.00
4617;BME280;2321;42.704;23.384;2024-01-16T10:00:40;95041.59;;;2.72;100.00
4617;BME280;2321;42.704;23.384;2024-01-16T10:03:08;95038.19;;;2.80;100.00
4617;BME280;2321;42.704;23.384;2024-01-16T10:05:37;95046.84;;;2.91;100.00
4617;BME280;2321;42.704;23.384;2024-01-16T10:08:06;95040.13;;;2.97;100.00
4617;BME280;2321;42.704;23.384;2024-01-16T10:10:33;95046.94;;;3.08;100.00
4617;BME280;2321;42.704;23.384;2024-01-16T10:13:00;95042.72;;;3.15;100.00
4617;BME280;2321;42.704;23.384;2024-01-16T10:15:27;95050.94;;;3.12;100.00
4617;BME280;2321;42.704;23.384;2024-01-16T10:17:54;95043.91;;;3.21;100.00
4617;BME280;2321;42.704;23.384;2024-01-16T10:20:31;95038.47;;;3.22;100.00
4617;BME280;2321;42.704;23.384;2024-01-16T10:22:57;95044.94;;;3.28;100.00
4617;BME280;2321;42.704;23.384;2024-01-16T10:25:25;95050.41;;;3.35;100.00
4617;BME280;2321;42.704;23.384;2024-01-16T10:28:02;95053.84;;;3.35;100.00
4617;BME280;2321;42.704;23.384;2024-01-16T10:30:29;95055.66;;;3.35;100.00
4617;BME280;2321;42.704;23.384;2024-01-16T10:33:01;95052.41;;;3.41;100.00
4617;BME280;2321;42.704;23.384;2024-01-16T10:35:38;95053.91;;;3.44;100.00
4617;BME280;2321;42.704;23.384;2024-01-16T10:38:05;95066.41;;;3.42;100.00
4617;BME280;2321;42.704;23.384;2024-01-16T10:40:33;95057.97;;;3.38;100.00
4617;BME280;2321;42.704;23.384;2024-01-16T10:43:00;95055.66;;;3.35;100.00
4617;BME280;2321;42.704;23.384;2024-01-16T10:45:28;95071.13;;;3.38;100.00
4617;BME280;2321;42.704;23.384;2024-01-16T10:48:00;95061.00;;;3.43;100.00
4617;BME280;2321;42.704;23.384;2024-01-16T10:50:27;95070.00;;;3.41;100.00
4617;BME280;2321;42.704;23.384;2024-01-16T10:52:54;95077.41;;;3.37;100.00
4617;BME280;2321;42.704;23.384;2024-01-16T10:55:21;95068.00;;;3.34;100.00
4617;BME280;2321;42.704;23.384;2024-01-16T10:57:50;95068.47;;;3.30;100.00
4617;BME280;2321;42.704;23.384;2024-01-16T11:00:18;95055.81;;;3.33;100.00
4617;BME280;2321;42.704;23.384;2024-01-16T11:02:49;95054.81;;;3.34;100.00
4617;BME280;2321;42.704;23.384;2024-01-16T11:05:16;95052.88;;;3.36;100.00
4617;BME280;2321;42.704;23.384;2024-01-16T11:07:43;95060.47;;;3.40;100.00
4617;BME280;2321;42.704;23.384;2024-01-16T11:10:10;95074.78;;;3.37;99.55
4617;BME280;2321;42.704;23.384;2024-01-16T11:12:38;95064.56;;;3.34;100.00
4617;BME280;2321;42.704;23.384;2024-01-16T11:15:08;95067.84;;;3.36;100.00
4617;BME280;2321;42.704;23.384;2024-01-16T11:17:35;95086.94;;;3.38;99.72
4617;BME280;2321;42.704;23.384;2024-01-16T11:20:03;95087.09;;;3.36;98.79
4617;BME280;2321;42.704;23.384;2024-01-16T11:22:31;95087.53;;;3.32;99.72
4617;BME280;2321;42.704;23.384;2024-01-16T11:25:08;95072.28;;;3.35;100.00
4617;BME280;2321;42.704;23.384;2024-01-16T11:27:35;95073.47;;;3.41;100.00
4617;BME280;2321;42.704;23.384;2024-01-16T11:30:02;95082.41;;;3.48;100.00
4617;BME280;2321;42.704;23.384;2024-01-16T11:32:34;95084.41;;;3.55;100.00
4617;BME280;2321;42.704;23.384;2024-01-16T11:35:02;95092.00;;;3.58;99.74
4617;BME280;2321;42.704;23.384;2024-01-16T11:37:29;95099.38;;;3.54;97.59
4617;BME280;2321;42.704;23.384;2024-01-16T11:42:46;95089.63;;;3.46;95.58
4617;BME280;2321;42.704;23.384;2024-01-16T11:45:25;95085.78;;;3.41;97.63
4617;BME280;2321;42.704;23.384;2024-01-16T11:48:13;95105.34;;;3.38;95.38
4617;BME280;2321;42.704;23.384;2024-01-16T11:50:40;95101.88;;;3.37;97.34
4617;BME280;2321;42.704;23.384;2024-01-16T11:53:07;95090.56;;;3.37;99.66
4617;BME280;2321;42.704;23.384;2024-01-16T11:55:34;95096.31;;;3.41;99.60
4617;BME280;2321;42.704;23.384;2024-01-16T11:58:11;95105.44;;;3.46;97.11
4617;BME280;2321;42.704;23.384;2024-01-16T12:00:48;95103.59;;;3.47;97.44
4617;BME280;2321;42.704;23.384;2024-01-16T12:03:18;95089.94;;;3.43;97.45
4617;BME280;2321;42.704;23.384;2024-01-16T12:05:46;95097.31;;;3.40;97.98
4617;BME280;2321;42.704;23.384;2024-01-16T12:08:21;95097.47;;;3.38;99.69
4617;BME280;2321;42.704;23.384;2024-01-16T12:10:48;95102.72;;;3.38;100.00
4617;BME280;2321;42.704;23.384;2024-01-16T12:13:15;95090.88;;;3.34;100.00
4617;BME280;2321;42.704;23.384;2024-01-16T12:15:42;95118.59;;;3.46;98.59
4617;BME280;2321;42.704;23.384;2024-01-16T12:18:09;95126.09;;;3.41;96.17
4617;BME280;2321;42.704;23.384;2024-01-16T12:20:37;95127.41;;;3.37;96.58
4617;BME280;2321;42.704;23.384;2024-01-16T12:23:04;95123.25;;;3.34;96.69
4617;BME280;2321;42.704;23.384;2024-01-16T12:25:31;95107.63;;;3.33;96.43
4617;BME280;2321;42.704;23.384;2024-01-16T12:27:59;95115.34;;;3.34;98.49
4617;BME280;2321;42.704;23.384;2024-01-16T12:30:26;95112.09;;;3.41;98.20
4617;BME280;2321;42.704;23.384;2024-01-16T12:33:03;95118.38;;;3.40;94.70
4617;BME280;2321;42.704;23.384;2024-01-16T12:35:32;95127.72;;;3.34;94.45
4617;BME280;2321;42.704;23.384;2024-01-16T12:38:01;95131.97;;;3.35;94.94
4617;BME280;2321;42.704;23.384;2024-01-16T12:40:28;95131.84;;;3.36;95.39
4617;BME280;2321;42.704;23.384;2024-01-16T12:42:55;95129.03;;;3.38;94.24
4617;BME280;2321;42.704;23.384;2024-01-16T12:45:23;95142.06;;;3.40;92.27
4617;BME280;2321;42.704;23.384;2024-01-16T12:47:50;95147.31;;;3.40;92.38
4617;BME280;2321;42.704;23.384;2024-01-16T12:50:21;95136.09;;;3.37;93.58
4617;BME280;2321;42.704;23.384;2024-01-16T12:52:48;95133.16;;;3.41;94.12
4617;BME280;2321;42.704;23.384;2024-01-16T12:55:17;95137.16;;;3.45;94.87
4617;BME280;2321;42.704;23.384;2024-01-16T12:57:44;95129.44;;;3.43;93.92
4617;BME280;2321;42.704;23.384;2024-01-16T13:00:21;95134.81;;;3.42;93.96
4617;BME280;2321;42.704;23.384;2024-01-16T13:02:49;95128.59;;;3.43;95.80
4617;BME280;2321;42.704;23.384;2024-01-16T13:05:16;95125.19;;;3.51;93.21
4617;BME280;2321;42.704;23.384;2024-01-16T13:07:42;95136.72;;;3.50;92.84
4617;BME280;2321;42.704;23.384;2024-01-16T13:10:09;95137.06;;;3.55;94.47
4617;BME280;2321;42.704;23.384;2024-01-16T13:12:39;95141.31;;;3.56;92.44
4617;BME280;2321;42.704;23.384;2024-01-16T13:15:06;95143.31;;;3.54;89.92
4617;BME280;2321;42.704;23.384;2024-01-16T13:17:33;95144.44;;;3.51;89.01